Time;durP1;ratioP1;P1;durP2;ratioP2;P2;SDS_P1;SDS_P2;PMS_P1;PMS_P2;Temp;Humidity;BMP_temperature;BMP_pressure;BME280_temperature;BME280_humidity;BME280_pressure;Samples;Min_cycle;Max_cycle;Signal;HPM_P1;HPM_P2
2022/03/19 00:02:19;;;;;;;;;;;;;;;;;;5030603;28;20385;-85
2022/03/19 00:04:44;;;;;;;;;;;;;;;;;;5030830;28;20353;-86
2022/03/19 00:07:09;;;;;;;;;;;;;;;;;;5031016;28;20362;-83
2022/03/19 00:09:39;;;;;;;;;;;;;;;;;;5028796;28;20197;-82
2022/03/19 00:12:04;;;;;;;;;;;;;;;;;;5029444;28;19910;-83
2022/03/19 00:14:29;;;;;;;;;;;;;;;;;;5028646;28;19967;-83
2022/03/19 00:16:54;;;;;;;;;;;;;;;;;;5029395;28;19909;-84
2022/03/19 00:19:19;;;;;;;;;;;;;;;;;;5046368;28;19910;-84
2022/03/19 00:21:45;;;;;;;;;;;;;;;;;;5029655;28;19909;-83
2022/03/19 00:24:10;;;;;;;;;;;;;;;;;;5039561;28;20020;-82
2022/03/19 00:26:35;;;;;;;;;;;;;;;;;;5046862;28;19913;-84
2022/03/19 00:29:00;;;;;;;;;;;;;;;;;;5044512;28;19924;-85
2022/03/19 00:31:25;;;;;;;;;;;;;;;;;;5046406;28;19909;-84
2022/03/19 00:33:50;;;;;;;;;;;;;;;;;;5045376;28;19909;-85
2022/03/19 00:36:16;;;;;;;;;;;;;;;;;;5045225;28;19909;-82
2022/03/19 00:38:41;;;;;;;;;;;;;;;;;;5046292;28;19921;-85
2022/03/19 00:41:06;;;;;;;;;;;;;;;;;;5046732;28;19909;-88
2022/03/19 00:43:31;;;;;;;;;;;;;;;;;;5045130;28;19909;-81
2022/03/19 00:45:56;;;;;;;;;;;;;;;;;;5045481;28;19909;-82
2022/03/19 00:48:21;;;;;;;;;;;;;;;;;;5047159;28;20020;-86
2022/03/19 00:50:46;;;;;;;;;;;;;;;;;;5046789;28;19916;-84
2022/03/19 00:53:11;;;;;;;;;;;;;;;;;;5048671;28;19910;-84
2022/03/19 00:55:37;;;;;;;;;;;;;;;;;;5047795;28;19893;-90
2022/03/19 00:58:02;;;;;;;;;;;;;;;;;;5046572;28;19999;-86
2022/03/19 01:00:27;;;;;;;;;;;;;;;;;;5046514;28;19910;-82
2022/03/19 01:02:52;;;;;;;;;;;;;;;;;;5047001;28;19909;-85
2022/03/19 01:05:17;;;;;;;;;;;;;;;;;;5047383;28;20359;-88
2022/03/19 01:07:43;;;;;;;;;;;;;;;;;;5048023;28;19914;-84
2022/03/19 01:10:08;;;;;;;;;;;;;;;;;;5048294;28;19913;-82
2022/03/19 01:12:33;;;;;;;;;;;;;;;;;;5048805;28;19964;-84
2022/03/19 01:14:58;;;;;;;;;;;;;;;;;;5046265;28;20286;-83
2022/03/19 01:17:23;;;;;;;;;;;;;;;;;;5046953;28;19944;-82
2022/03/19 01:19:54;;;;;;;;;;;;;;;;;;5046087;28;19909;-83
2022/03/19 01:22:21;;;;;;;;;;;;;;;;;;5046435;28;19944;-85
2022/03/19 01:24:46;;;;;;;;;;;;;;;;;;5046061;28;19921;-85
2022/03/19 01:27:11;;;;;;;;;;;;;;;;;;5045948;28;20437;-85
2022/03/19 01:29:36;;;;;;;;;;;;;;;;;;5046971;28;19953;-85
2022/03/19 01:32:03;;;;;;;;;;;;;;;;;;5047583;28;20259;-87
2022/03/19 01:34:28;;;;;;;;;;;;;;;;;;5046164;28;19932;-85
2022/03/19 01:36:53;;;;;;;;;;;;;;;;;;5045820;28;19909;-85
2022/03/19 01:39:19;;;;;;;;;;;;;;;;;;5045130;28;19940;-85
2022/03/19 01:41:44;;;;;;;;;;;;;;;;;;5045691;28;19916;-87
2022/03/19 01:44:09;;;;;;;;;;;;;;;;;;5046744;28;19993;-87
2022/03/19 01:46:34;;;;;;;;;;;;;;;;;;5045289;28;19956;-86
2022/03/19 01:49:00;;;;;;;;;;;;;;;;;;5044646;28;19971;-83
2022/03/19 01:51:25;;;;;;;;;;;;;;;;;;5045102;28;19910;-84
2022/03/19 01:53:50;;;;;;;;;;;;;;;;;;5045013;28;19916;-90
2022/03/19 01:56:15;;;;;;;;;;;;;;;;;;5045275;28;20499;-84
2022/03/19 01:58:40;;;;;;;;;;;;;;;;;;5044885;28;19913;-85
2022/03/19 02:01:05;;;;;;;;;;;;;;;;;;5043448;28;19908;-85
2022/03/19 02:03:31;;;;;;;;;;;;;;;;;;5042611;28;19913;-85
2022/03/19 02:05:57;;;;;;;;;;;;;;;;;;5030920;28;19917;-82
2022/03/19 02:08:25;;;;;;;;;;;;;;;;;;5041567;28;19925;-84
2022/03/19 02:10:50;;;;;;;;;;;;;;;;;;5043352;28;19955;-85
2022/03/19 02:13:15;;;;;;;;;;;;;;;;;;5048623;28;19909;-84
2022/03/19 02:15:40;;;;;;;;;;;;;;;;;;5047787;28;19913;-87
2022/03/19 02:18:07;;;;;;;;;;;;;;;;;;5048607;28;19909;-87
2022/03/19 02:20:32;;;;;;;;;;;;;;;;;;5048387;28;19909;-83
2022/03/19 02:25:41;;;;;;;;;;;;;;;;;;5049969;28;19915;-85
2022/03/19 02:28:06;;;;;;;;;;;;;;;;;;5031071;28;20004;-86
2022/03/19 02:30:32;;;;;;;;;;;;;;;;;;5031329;28;19910;-84
2022/03/19 02:32:57;;;;;;;;;;;;;;;;;;5049259;28;19916;-85
2022/03/19 02:35:22;;;;;;;;;;;;;;;;;;5031809;28;19916;-85
2022/03/19 02:37:47;;;;;;;;;;;;;;;;;;5049269;28;19968;-85
2022/03/19 02:40:12;;;;;;;;;;;;;;;;;;5048970;28;19944;-86
2022/03/19 02:42:38;;;;;;;;;;;;;;;;;;5029354;28;19909;-83
2022/03/19 02:45:06;;;;;;;;;;;;;;;;;;5029199;28;19909;-84
2022/03/19 02:47:31;;;;;;;;;;;;;;;;;;5030067;28;19913;-86
2022/03/19 02:49:56;;;;;;;;;;;;;;;;;;5047571;28;19924;-86
2022/03/19 02:52:21;;;;;;;;;;;;;;;;;;5048542;28;19916;-87
2022/03/19 02:54:46;;;;;;;;;;;;;;;;;;5031041;28;19905;-88
2022/03/19 02:57:11;;;;;;;;;;;;;;;;;;5030732;28;19909;-85
2022/03/19 02:59:36;;;;;;;;;;;;;;;;;;5029195;28;19937;-86
2022/03/19 03:02:01;;;;;;;;;;;;;;;;;;5048084;28;19916;-86
2022/03/19 03:04:27;;;;;;;;;;;;;;;;;;5030296;28;19950;-85
2022/03/19 03:06:53;;;;;;;;;;;;;;;;;;5048360;28;19949;-85
2022/03/19 03:09:18;;;;;;;;;;;;;;;;;;5030691;28;19925;-88
2022/03/19 03:11:44;;;;;;;;;;;;;;;;;;5030829;28;19932;-86
2022/03/19 03:14:09;;;;;;;;;;;;;;;;;;5030665;28;19909;-85
2022/03/19 03:16:34;;;;;;;;;;;;;;;;;;5030126;28;19910;-84
2022/03/19 03:18:59;;;;;;;;;;;;;;;;;;5047628;28;19913;-86
2022/03/19 03:21:24;;;;;;;;;;;;;;;;;;5030173;28;19916;-84
2022/03/19 03:23:50;;;;;;;;;;;;;;;;;;5035010;28;20016;-86
2022/03/19 03:26:15;;;;;;;;;;;;;;;;;;5045448;28;19909;-86
2022/03/19 03:28:40;;;;;;;;;;;;;;;;;;5044425;28;20428;-88
2022/03/19 03:31:06;;;;;;;;;;;;;;;;;;5044003;28;19916;-85
2022/03/19 03:33:31;;;;;;;;;;;;;;;;;;5044253;28;19916;-84
2022/03/19 03:35:56;;;;;;;;;;;;;;;;;;5044552;28;19913;-85
2022/03/19 03:38:21;;;;;;;;;;;;;;;;;;5043894;28;19979;-85
2022/03/19 03:40:46;;;;;;;;;;;;;;;;;;5044757;28;19913;-86
2022/03/19 03:43:11;;;;;;;;;;;;;;;;;;5044777;28;19948;-85
2022/03/19 03:45:37;;;;;;;;;;;;;;;;;;5044363;28;19909;-85
2022/03/19 03:48:02;;;;;;;;;;;;;;;;;;5043467;28;19992;-85
2022/03/19 03:50:27;;;;;;;;;;;;;;;;;;5045128;28;19920;-87
2022/03/19 03:52:52;;;;;;;;;;;;;;;;;;5045608;28;19910;-87
2022/03/19 03:55:17;;;;;;;;;;;;;;;;;;5044466;28;19913;-84
2022/03/19 03:57:42;;;;;;;;;;;;;;;;;;5045741;28;19952;-86
2022/03/19 04:00:10;;;;;;;;;;;;;;;;;;5047507;28;20000;-84
2022/03/19 04:02:35;;;;;;;;;;;;;;;;;;5046857;28;19909;-87
2022/03/19 04:05:00;;;;;;;;;;;;;;;;;;5046156;28;19920;-84
2022/03/19 04:07:27;;;;;;;;;;;;;;;;;;5047598;28;19918;-83
2022/03/19 04:09:52;;;;;;;;;;;;;;;;;;5046950;28;20358;-84
2022/03/19 04:12:17;;;;;;;;;;;;;;;;;;5045803;28;20366;-86
2022/03/19 04:14:42;;;;;;;;;;;;;;;;;;5044933;28;19909;-85
2022/03/19 04:17:07;;;;;;;;;;;;;;;;;;5046162;28;20008;-85
2022/03/19 04:19:33;;;;;;;;;;;;;;;;;;5045014;28;19940;-85
2022/03/19 04:21:58;;;;;;;;;;;;;;;;;;5044245;28;19909;-85
2022/03/19 04:24:23;;;;;;;;;;;;;;;;;;5044304;28;19925;-85
2022/03/19 04:26:48;;;;;;;;;;;;;;;;;;5045881;28;19909;-85
2022/03/19 04:29:13;;;;;;;;;;;;;;;;;;5043917;28;19917;-85
2022/03/19 04:31:39;;;;;;;;;;;;;;;;;;5046302;28;19893;-86
2022/03/19 04:34:04;;;;;;;;;;;;;;;;;;5043976;28;19936;-85
2022/03/19 04:36:30;;;;;;;;;;;;;;;;;;5043477;28;19955;-86
2022/03/19 04:38:55;;;;;;;;;;;;;;;;;;5044881;28;19917;-84
2022/03/19 04:41:20;;;;;;;;;;;;;;;;;;5044970;28;19909;-86
2022/03/19 04:43:52;;;;;;;;;;;;;;;;;;5045125;28;20059;-84
2022/03/19 04:46:18;;;;;;;;;;;;;;;;;;5044137;28;19913;-82
2022/03/19 04:48:45;;;;;;;;;;;;;;;;;;5043511;28;19944;-84
2022/03/19 04:51:10;;;;;;;;;;;;;;;;;;5042451;28;19913;-84
2022/03/19 04:53:38;;;;;;;;;;;;;;;;;;5042136;28;20373;-81
2022/03/19 04:56:03;;;;;;;;;;;;;;;;;;5042344;28;19913;-83
2022/03/19 04:58:28;;;;;;;;;;;;;;;;;;5043581;28;19906;-85
2022/03/19 05:00:54;;;;;;;;;;;;;;;;;;5044857;28;19909;-86
2022/03/19 05:03:19;;;;;;;;;;;;;;;;;;5044826;28;19905;-84
2022/03/19 05:05:44;;;;;;;;;;;;;;;;;;5042856;28;19917;-86
2022/03/19 05:08:10;;;;;;;;;;;;;;;;;;5044815;28;19910;-83
2022/03/19 05:13:20;;;;;;;;;;;;;;;;;;5044633;28;19955;-83
2022/03/19 05:15:45;;;;;;;;;;;;;;;;;;5043914;28;19909;-84
2022/03/19 05:18:10;;;;;;;;;;;;;;;;;;5043917;28;19917;-84
2022/03/19 05:20:36;;;;;;;;;;;;;;;;;;5044434;28;19940;-87
2022/03/19 05:23:01;;;;;;;;;;;;;;;;;;5043326;28;19909;-84
2022/03/19 05:25:26;;;;;;;;;;;;;;;;;;5045330;28;19905;-84
2022/03/19 05:27:51;;;;;;;;;;;;;;;;;;5027496;28;20244;-84
2022/03/19 05:30:16;;;;;;;;;;;;;;;;;;5027151;28;19916;-82
2022/03/19 05:32:41;;;;;;;;;;;;;;;;;;5027830;28;19967;-86
2022/03/19 05:35:07;;;;;;;;;;;;;;;;;;5027587;28;19952;-86
2022/03/19 05:37:32;;;;;;;;;;;;;;;;;;5045707;28;19924;-84
2022/03/19 05:39:57;;;;;;;;;;;;;;;;;;5028179;28;19910;-86
2022/03/19 05:42:22;;;;;;;;;;;;;;;;;;5028200;28;19916;-85
2022/03/19 05:44:47;;;;;;;;;;;;;;;;;;5046097;28;20421;-87
2022/03/19 05:47:13;;;;;;;;;;;;;;;;;;5044640;28;19992;-85
2022/03/19 05:49:38;;;;;;;;;;;;;;;;;;5043957;28;19967;-86
2022/03/19 05:52:03;;;;;;;;;;;;;;;;;;5043128;28;19916;-85
2022/03/19 05:54:29;;;;;;;;;;;;;;;;;;5024824;28;19909;-84
2022/03/19 05:56:54;;;;;;;;;;;;;;;;;;5024267;28;19909;-85
2022/03/19 05:59:19;;;;;;;;;;;;;;;;;;5041093;28;19989;-83
2022/03/19 06:01:44;;;;;;;;;;;;;;;;;;5023597;28;19910;-84
2022/03/19 06:04:09;;;;;;;;;;;;;;;;;;5023328;28;19913;-86
2022/03/19 06:06:35;;;;;;;;;;;;;;;;;;5023935;28;20022;-85
2022/03/19 06:09:00;;;;;;;;;;;;;;;;;;5039045;28;19936;-85
2022/03/19 06:11:25;;;;;;;;;;;;;;;;;;5021613;28;19898;-85
2022/03/19 06:13:50;;;;;;;;;;;;;;;;;;5039875;28;19909;-89
2022/03/19 06:16:15;;;;;;;;;;;;;;;;;;5023073;28;20007;-82
2022/03/19 06:18:45;;;;;;;;;;;;;;;;;;5020370;28;19976;-87
2022/03/19 06:21:10;;;;;;;;;;;;;;;;;;5038759;28;19913;-87
2022/03/19 06:23:36;;;;;;;;;;;;;;;;;;5039274;28;19928;-86
2022/03/19 06:26:01;;;;;;;;;;;;;;;;;;5021487;28;19959;-85
2022/03/19 06:28:26;;;;;;;;;;;;;;;;;;5022025;28;20295;-87
2022/03/19 06:30:51;;;;;;;;;;;;;;;;;;5022625;28;19920;-84
2022/03/19 06:33:16;;;;;;;;;;;;;;;;;;5040366;28;19909;-84
2022/03/19 06:38:25;;;;;;;;;;;;;;;;;;5039921;28;19940;-84
2022/03/19 06:40:50;;;;;;;;;;;;;;;;;;5020532;28;19913;-88
2022/03/19 06:43:15;;;;;;;;;;;;;;;;;;5037926;28;19916;-86
2022/03/19 06:45:40;;;;;;;;;;;;;;;;;;5037886;28;20005;-83
2022/03/19 06:48:08;;;;;;;;;;;;;;;;;;5019945;28;19915;-86
2022/03/19 06:50:34;;;;;;;;;;;;;;;;;;5020034;28;19909;-86
2022/03/19 06:52:59;;;;;;;;;;;;;;;;;;5020357;28;20007;-83
2022/03/19 06:55:24;;;;;;;;;;;;;;;;;;5037156;28;19917;-81
2022/03/19 06:57:49;;;;;;;;;;;;;;;;;;5038890;28;19909;-86
2022/03/19 07:00:14;;;;;;;;;;;;;;;;;;5023567;28;19916;-83
2022/03/19 07:02:39;;;;;;;;;;;;;;;;;;5039536;28;19909;-82
2022/03/19 07:05:04;;;;;;;;;;;;;;;;;;5021275;28;19909;-84
2022/03/19 07:07:29;;;;;;;;;;;;;;;;;;5020636;28;19924;-82
2022/03/19 07:09:55;;;;;;;;;;;;;;;;;;5038737;28;19917;-81
2022/03/19 07:12:20;;;;;;;;;;;;;;;;;;5037832;28;19917;-81
2022/03/19 07:14:45;;;;;;;;;;;;;;;;;;5021232;28;19909;-83
2022/03/19 07:17:11;;;;;;;;;;;;;;;;;;5039462;28;19952;-84
2022/03/19 07:19:36;;;;;;;;;;;;;;;;;;5021408;28;19947;-81
2022/03/19 07:22:01;;;;;;;;;;;;;;;;;;5037443;28;19943;-80
2022/03/19 07:24:26;;;;;;;;;;;;;;;;;;5035586;28;19925;-83
2022/03/19 07:26:51;;;;;;;;;;;;;;;;;;5021135;28;20432;-81
2022/03/19 07:29:19;;;;;;;;;;;;;;;;;;5038878;28;19924;-82
2022/03/19 07:31:44;;;;;;;;;;;;;;;;;;5038727;28;20343;-83
2022/03/19 07:34:09;;;;;;;;;;;;;;;;;;5021347;28;20288;-81
2022/03/19 07:36:34;;;;;;;;;;;;;;;;;;5037583;28;20371;-83
2022/03/19 07:38:59;;;;;;;;;;;;;;;;;;5038699;28;19917;-83
2022/03/19 07:44:08;;;;;;;;;;;;;;;;;;5039012;28;19932;-83
2022/03/19 07:46:34;;;;;;;;;;;;;;;;;;5037356;28;19909;-82
2022/03/19 07:49:00;;;;;;;;;;;;;;;;;;5019319;28;19917;-82
2022/03/19 07:51:25;;;;;;;;;;;;;;;;;;5037746;28;20290;-80
2022/03/19 07:53:50;;;;;;;;;;;;;;;;;;5019249;28;19923;-80
2022/03/19 07:56:15;;;;;;;;;;;;;;;;;;5019173;28;19909;-80
2022/03/19 07:58:41;;;;;;;;;;;;;;;;;;5037212;28;19940;-79
2022/03/19 08:01:06;;;;;;;;;;;;;;;;;;5036120;28;20521;-81
2022/03/19 08:03:31;;;;;;;;;;;;;;;;;;5017478;28;19913;-80
2022/03/19 08:05:56;;;;;;;;;;;;;;;;;;5017896;28;20449;-80
2022/03/19 08:08:21;;;;;;;;;;;;;;;;;;5018927;28;19976;-81
2022/03/19 08:10:47;;;;;;;;;;;;;;;;;;5018097;28;19909;-81
2022/03/19 08:13:12;;;;;;;;;;;;;;;;;;5037096;28;19909;-82
2022/03/19 08:15:37;;;;;;;;;;;;;;;;;;5037078;28;20385;-80
2022/03/19 08:18:02;;;;;;;;;;;;;;;;;;5019353;28;20383;-81
2022/03/19 08:20:28;;;;;;;;;;;;;;;;;;5007268;28;19914;-84
2022/03/19 08:22:53;;;;;;;;;;;;;;;;;;4997982;28;20012;-81
2022/03/19 08:25:18;;;;;;;;;;;;;;;;;;4998990;28;19984;-83
2022/03/19 08:27:43;;;;;;;;;;;;;;;;;;4996210;28;19910;-81
2022/03/19 08:30:08;;;;;;;;;;;;;;;;;;4996040;28;20296;-81
2022/03/19 08:32:34;;;;;;;;;;;;;;;;;;4996500;28;19909;-81
2022/03/19 08:34:59;;;;;;;;;;;;;;;;;;4995815;28;20490;-79
2022/03/19 08:37:26;;;;;;;;;;;;;;;;;;4995578;28;20368;-82
2022/03/19 08:42:36;;;;;;;;;;;;;;;;;;4996964;28;19917;-81
2022/03/19 08:45:01;;;;;;;;;;;;;;;;;;4997431;28;19914;-81
2022/03/19 08:47:26;;;;;;;;;;;;;;;;;;4996762;28;19916;-83
2022/03/19 08:49:51;;;;;;;;;;;;;;;;;;4996955;28;19929;-84
2022/03/19 08:52:16;;;;;;;;;;;;;;;;;;4999424;28;19917;-88
2022/03/19 08:54:41;;;;;;;;;;;;;;;;;;5000477;28;19913;-84
2022/03/19 08:57:06;;;;;;;;;;;;;;;;;;5022880;28;20314;-82
2022/03/19 08:59:31;;;;;;;;;;;;;;;;;;5019181;28;20310;-81
2022/03/19 09:01:58;;;;;;;;;;;;;;;;;;5019382;28;19955;-83
2022/03/19 09:04:23;;;;;;;;;;;;;;;;;;5019306;28;19948;-82
2022/03/19 09:06:50;;;;;;;;;;;;;;;;;;5018471;28;19951;-82
2022/03/19 09:09:17;;;;;;;;;;;;;;;;;;5036807;28;19944;-82
2022/03/19 09:11:42;;;;;;;;;;;;;;;;;;5019611;28;19920;-83
2022/03/19 09:14:07;;;;;;;;;;;;;;;;;;5018170;28;20008;-82
2022/03/19 09:16:32;;;;;;;;;;;;;;;;;;5034575;28;19909;-82
2022/03/19 09:18:58;;;;;;;;;;;;;;;;;;5028964;28;19920;-84
2022/03/19 09:21:23;;;;;;;;;;;;;;;;;;5021964;28;19956;-83
2022/03/19 09:23:51;;;;;;;;;;;;;;;;;;5021118;28;20374;-83
2022/03/19 09:26:16;;;;;;;;;;;;;;;;;;5023702;28;19909;-82
2022/03/19 09:28:41;;;;;;;;;;;;;;;;;;5024140;28;20268;-83
2022/03/19 09:31:06;;;;;;;;;;;;;;;;;;5026279;28;19909;-83
2022/03/19 09:33:32;;;;;;;;;;;;;;;;;;5021706;28;19909;-83
2022/03/19 09:36:00;;;;;;;;;;;;;;;;;;5032231;28;19916;-81
2022/03/19 09:38:26;;;;;;;;;;;;;;;;;;5030691;28;19924;-81
2022/03/19 09:40:52;;;;;;;;;;;;;;;;;;5020933;28;19917;-81
2022/03/19 09:43:17;;;;;;;;;;;;;;;;;;5031728;28;19910;-81
2022/03/19 09:45:42;;;;;;;;;;;;;;;;;;5033452;28;20294;-83
2022/03/19 09:48:07;;;;;;;;;;;;;;;;;;5034974;28;20378;-83
2022/03/19 09:50:34;;;;;;;;;;;;;;;;;;5035680;28;20432;-81
2022/03/19 09:52:59;;;;;;;;;;;;;;;;;;5035850;28;20422;-83
2022/03/19 09:55:26;;;;;;;;;;;;;;;;;;5036949;28;20437;-84
2022/03/19 09:57:51;;;;;;;;;;;;;;;;;;5036253;28;20386;-83
2022/03/19 10:00:16;;;;;;;;;;;;;;;;;;5035605;28;20389;-83
2022/03/19 10:02:41;;;;;;;;;;;;;;;;;;5035389;28;19913;-81
2022/03/19 10:08:35;;;;;;;;;;;;;;;;;;5037170;28;19909;-83
2022/03/19 10:10:39;;;;;;;;;;;;;;;;;;5037537;28;19928;-84
2022/03/19 10:13:04;;;;;;;;;;;;;;;;;;5036565;28;19909;-83
2022/03/19 10:15:31;;;;;;;;;;;;;;;;;;5036575;28;19955;-86
2022/03/19 10:17:56;;;;;;;;;;;;;;;;;;5035740;28;19948;-81
2022/03/19 10:20:21;;;;;;;;;;;;;;;;;;5035992;28;19913;-83
2022/03/19 10:22:47;;;;;;;;;;;;;;;;;;5036233;28;19943;-83
2022/03/19 10:25:13;;;;;;;;;;;;;;;;;;5019345;28;19944;-84
2022/03/19 10:27:38;;;;;;;;;;;;;;;;;;5020274;28;20362;-88
2022/03/19 10:30:03;;;;;;;;;;;;;;;;;;5019923;28;19979;-86
2022/03/19 10:32:28;;;;;;;;;;;;;;;;;;5022316;28;19910;-86
2022/03/19 10:34:54;;;;;;;;;;;;;;;;;;5023772;28;19905;-87
2022/03/19 10:37:19;;;;;;;;;;;;;;;;;;5023883;28;19987;-83
2022/03/19 10:39:44;;;;;;;;;;;;;;;;;;5013300;28;19914;-82
2022/03/19 10:42:09;;;;;;;;;;;;;;;;;;5023082;28;19989;-81
2022/03/19 10:44:34;;;;;;;;;;;;;;;;;;5026251;28;19909;-84
2022/03/19 10:46:59;;;;;;;;;;;;;;;;;;5036438;28;19909;-83
2022/03/19 10:49:24;;;;;;;;;;;;;;;;;;5033657;28;19928;-84
2022/03/19 10:51:49;;;;;;;;;;;;;;;;;;5010765;28;19910;-83
2022/03/19 10:54:15;;;;;;;;;;;;;;;;;;5029331;28;19995;-83
2022/03/19 10:56:40;;;;;;;;;;;;;;;;;;5016963;28;19992;-82
2022/03/19 10:59:05;;;;;;;;;;;;;;;;;;5028910;28;19913;-82
2022/03/19 11:01:30;;;;;;;;;;;;;;;;;;5024564;28;20290;-82
2022/03/19 11:03:55;;;;;;;;;;;;;;;;;;5012708;28;19983;-84
2022/03/19 11:06:20;;;;;;;;;;;;;;;;;;5012261;28;19909;-83
2022/03/19 11:08:45;;;;;;;;;;;;;;;;;;5020357;28;19925;-83
2022/03/19 11:11:11;;;;;;;;;;;;;;;;;;5039310;28;19897;-82
2022/03/19 11:13:37;;;;;;;;;;;;;;;;;;5038932;28;19909;-82
2022/03/19 11:16:02;;;;;;;;;;;;;;;;;;5038881;28;19980;-83
2022/03/19 11:18:27;;;;;;;;;;;;;;;;;;5021547;28;19913;-84
2022/03/19 11:20:52;;;;;;;;;;;;;;;;;;5040057;28;19916;-83
2022/03/19 11:23:18;;;;;;;;;;;;;;;;;;5022735;28;19925;-84
2022/03/19 11:25:44;;;;;;;;;;;;;;;;;;5038342;28;19963;-85
2022/03/19 11:28:10;;;;;;;;;;;;;;;;;;5038043;28;19920;-84
2022/03/19 11:30:36;;;;;;;;;;;;;;;;;;5037817;28;19909;-84
2022/03/19 11:33:01;;;;;;;;;;;;;;;;;;5037733;28;19940;-83
2022/03/19 11:35:26;;;;;;;;;;;;;;;;;;5040042;28;19935;-86
2022/03/19 11:37:53;;;;;;;;;;;;;;;;;;5040772;28;19974;-85
2022/03/19 11:40:18;;;;;;;;;;;;;;;;;;5039634;28;19913;-86
2022/03/19 11:42:43;;;;;;;;;;;;;;;;;;5039612;28;19916;-85
2022/03/19 11:45:11;;;;;;;;;;;;;;;;;;5037861;28;19921;-86
2022/03/19 11:47:38;;;;;;;;;;;;;;;;;;5039821;28;19909;-84
2022/03/19 11:50:03;;;;;;;;;;;;;;;;;;5038756;28;19940;-86
2022/03/19 11:52:28;;;;;;;;;;;;;;;;;;5038219;28;20355;-84
2022/03/19 11:54:54;;;;;;;;;;;;;;;;;;5039074;28;19956;-84
2022/03/19 11:57:20;;;;;;;;;;;;;;;;;;5037969;28;19932;-83
2022/03/19 11:59:45;;;;;;;;;;;;;;;;;;5037498;28;20359;-84
2022/03/19 12:02:10;;;;;;;;;;;;;;;;;;5038055;28;19909;-84
2022/03/19 12:04:35;;;;;;;;;;;;;;;;;;5037241;28;19939;-82
2022/03/19 12:07:01;;;;;;;;;;;;;;;;;;5035791;28;19909;-85
2022/03/19 12:09:26;;;;;;;;;;;;;;;;;;5037888;28;19929;-84
2022/03/19 12:11:51;;;;;;;;;;;;;;;;;;5038107;28;20358;-85
2022/03/19 12:14:16;;;;;;;;;;;;;;;;;;5037309;28;19915;-83
2022/03/19 12:16:41;;;;;;;;;;;;;;;;;;5038239;28;19912;-83
2022/03/19 12:19:06;;;;;;;;;;;;;;;;;;5036842;28;20310;-82
2022/03/19 12:21:32;;;;;;;;;;;;;;;;;;5036593;28;19924;-82
2022/03/19 12:23:57;;;;;;;;;;;;;;;;;;5036673;28;19928;-83
2022/03/19 12:26:25;;;;;;;;;;;;;;;;;;5037222;28;19913;-84
2022/03/19 12:28:50;;;;;;;;;;;;;;;;;;5037742;28;20383;-83
2022/03/19 12:31:15;;;;;;;;;;;;;;;;;;5039301;28;20363;-88
2022/03/19 12:33:40;;;;;;;;;;;;;;;;;;5040962;28;19906;-87
2022/03/19 12:36:05;;;;;;;;;;;;;;;;;;5038651;28;20370;-83
2022/03/19 12:38:32;;;;;;;;;;;;;;;;;;5036497;28;19913;-83
2022/03/19 12:43:41;;;;;;;;;;;;;;;;;;5037528;28;19951;-85
2022/03/19 12:46:06;;;;;;;;;;;;;;;;;;5037341;28;19909;-81
2022/03/19 12:48:31;;;;;;;;;;;;;;;;;;5038230;28;20350;-85
2022/03/19 12:50:56;;;;;;;;;;;;;;;;;;5036844;28;19909;-85
2022/03/19 12:53:23;;;;;;;;;;;;;;;;;;5037038;28;19897;-81
2022/03/19 12:55:48;;;;;;;;;;;;;;;;;;5036616;28;19909;-82
2022/03/19 12:58:30;;;;;;;;;;;;;;;;;;5036465;28;19960;-83
2022/03/19 13:00:56;;;;;;;;;;;;;;;;;;5036630;28;19931;-83
2022/03/19 13:03:21;;;;;;;;;;;;;;;;;;5036089;28;20589;-87
2022/03/19 13:05:46;;;;;;;;;;;;;;;;;;5036638;28;19936;-85
2022/03/19 13:08:11;;;;;;;;;;;;;;;;;;5035486;28;19921;-86
2022/03/19 13:10:36;;;;;;;;;;;;;;;;;;5038847;28;19989;-82
2022/03/19 13:13:01;;;;;;;;;;;;;;;;;;5036438;28;19909;-84
2022/03/19 13:15:26;;;;;;;;;;;;;;;;;;5037166;28;19909;-83
2022/03/19 13:17:51;;;;;;;;;;;;;;;;;;5036241;28;20275;-81
2022/03/19 13:20:18;;;;;;;;;;;;;;;;;;5035809;28;19916;-84
2022/03/19 13:22:43;;;;;;;;;;;;;;;;;;5036500;28;19917;-82
2022/03/19 13:25:08;;;;;;;;;;;;;;;;;;5036683;28;19928;-83
2022/03/19 13:27:35;;;;;;;;;;;;;;;;;;5019081;28;19913;-80
2022/03/19 13:30:02;;;;;;;;;;;;;;;;;;5036620;28;19952;-83
2022/03/19 13:32:27;;;;;;;;;;;;;;;;;;5019928;28;20007;-85
2022/03/19 13:34:54;;;;;;;;;;;;;;;;;;5037343;28;19952;-85
2022/03/19 13:37:20;;;;;;;;;;;;;;;;;;5038504;28;20370;-85
2022/03/19 13:39:46;;;;;;;;;;;;;;;;;;5022061;28;19920;-84
2022/03/19 13:42:11;;;;;;;;;;;;;;;;;;5021732;28;19968;-85
2022/03/19 13:44:36;;;;;;;;;;;;;;;;;;5020898;28;19959;-86
2022/03/19 13:47:01;;;;;;;;;;;;;;;;;;5039910;28;19909;-85
2022/03/19 13:49:26;;;;;;;;;;;;;;;;;;5039558;28;20359;-85
2022/03/19 13:51:53;;;;;;;;;;;;;;;;;;5023144;28;19984;-87
2022/03/19 13:54:18;;;;;;;;;;;;;;;;;;5020984;28;19920;-84
2022/03/19 13:56:43;;;;;;;;;;;;;;;;;;5023541;28;19913;-84
2022/03/19 13:59:08;;;;;;;;;;;;;;;;;;5040424;28;19916;-85
2022/03/19 14:01:34;;;;;;;;;;;;;;;;;;5022483;28;19916;-88
2022/03/19 14:03:59;;;;;;;;;;;;;;;;;;5021574;28;19909;-84
2022/03/19 14:06:24;;;;;;;;;;;;;;;;;;5020845;28;19909;-86
2022/03/19 14:08:49;;;;;;;;;;;;;;;;;;5018871;28;19964;-85
2022/03/19 14:11:14;;;;;;;;;;;;;;;;;;5020443;28;19977;-85
2022/03/19 14:13:42;;;;;;;;;;;;;;;;;;5011652;28;20008;-87
2022/03/19 14:16:08;;;;;;;;;;;;;;;;;;5001439;28;19981;-87
2022/03/19 14:18:33;;;;;;;;;;;;;;;;;;5018706;28;19944;-84
2022/03/19 14:20:59;;;;;;;;;;;;;;;;;;5019333;28;19992;-85
2022/03/19 14:23:25;;;;;;;;;;;;;;;;;;5000329;28;19922;-85
2022/03/19 14:25:50;;;;;;;;;;;;;;;;;;5000578;28;19924;-87
2022/03/19 14:28:17;;;;;;;;;;;;;;;;;;5002664;28;19909;-90
2022/03/19 14:30:43;;;;;;;;;;;;;;;;;;5003307;28;19913;-86
2022/03/19 14:33:08;;;;;;;;;;;;;;;;;;5002066;28;19964;-85
2022/03/19 14:35:34;;;;;;;;;;;;;;;;;;5001256;28;19913;-86
2022/03/19 14:37:59;;;;;;;;;;;;;;;;;;5019297;28;19913;-89
2022/03/19 14:40:25;;;;;;;;;;;;;;;;;;4998199;28;20043;-86
2022/03/19 14:42:50;;;;;;;;;;;;;;;;;;4989380;28;19972;-86
2022/03/19 14:45:15;;;;;;;;;;;;;;;;;;4999772;28;19992;-86
2022/03/19 14:47:40;;;;;;;;;;;;;;;;;;5001571;28;20337;-90
2022/03/19 14:50:05;;;;;;;;;;;;;;;;;;4981978;28;19985;-86
2022/03/19 14:52:30;;;;;;;;;;;;;;;;;;4982551;28;19937;-85
2022/03/19 14:54:58;;;;;;;;;;;;;;;;;;4997024;28;19920;-85
2022/03/19 14:57:24;;;;;;;;;;;;;;;;;;5018569;28;19933;-85
2022/03/19 14:59:50;;;;;;;;;;;;;;;;;;4993665;28;19913;-87
2022/03/19 15:02:15;;;;;;;;;;;;;;;;;;4980747;28;19992;-86
2022/03/19 15:04:40;;;;;;;;;;;;;;;;;;4980418;28;19914;-84
2022/03/19 15:07:05;;;;;;;;;;;;;;;;;;4998727;28;20327;-89
2022/03/19 15:09:43;;;;;;;;;;;;;;;;;;4981524;28;19961;-87
2022/03/19 15:12:08;;;;;;;;;;;;;;;;;;4981069;28;19914;-84
2022/03/19 15:14:33;;;;;;;;;;;;;;;;;;4989724;28;19968;-86
2022/03/19 15:16:59;;;;;;;;;;;;;;;;;;4999224;28;19909;-83
2022/03/19 15:19:24;;;;;;;;;;;;;;;;;;5002704;28;20367;-83
2022/03/19 15:21:49;;;;;;;;;;;;;;;;;;5003968;28;19916;-85
2022/03/19 15:24:14;;;;;;;;;;;;;;;;;;5020971;28;19947;-87
2022/03/19 15:26:39;;;;;;;;;;;;;;;;;;5020814;28;19894;-84
2022/03/19 15:29:04;;;;;;;;;;;;;;;;;;5020181;28;19918;-83
2022/03/19 15:31:29;;;;;;;;;;;;;;;;;;5003519;28;19920;-82
2022/03/19 15:33:54;;;;;;;;;;;;;;;;;;5003406;28;20347;-82
2022/03/19 15:36:20;;;;;;;;;;;;;;;;;;5003432;28;19955;-88
2022/03/19 15:38:46;;;;;;;;;;;;;;;;;;5021606;28;20398;-88
2022/03/19 15:41:16;;;;;;;;;;;;;;;;;;5003854;28;20349;-88
2022/03/19 15:43:42;;;;;;;;;;;;;;;;;;5020704;28;20024;-87
2022/03/19 15:46:07;;;;;;;;;;;;;;;;;;5003855;28;19956;-85
2022/03/19 15:48:32;;;;;;;;;;;;;;;;;;5002598;28;20287;-83
2022/03/19 15:50:57;;;;;;;;;;;;;;;;;;5002653;28;19916;-82
2022/03/19 15:53:23;;;;;;;;;;;;;;;;;;5004396;28;19910;-85
2022/03/19 15:55:48;;;;;;;;;;;;;;;;;;5004077;28;20438;-85
2022/03/19 15:58:13;;;;;;;;;;;;;;;;;;5021560;28;19956;-87
2022/03/19 16:00:38;;;;;;;;;;;;;;;;;;5002539;28;19910;-84
2022/03/19 16:03:05;;;;;;;;;;;;;;;;;;5001249;28;20268;-86
2022/03/19 16:05:30;;;;;;;;;;;;;;;;;;4982716;28;19910;-83
2022/03/19 16:07:56;;;;;;;;;;;;;;;;;;5001427;28;19981;-84
2022/03/19 16:10:21;;;;;;;;;;;;;;;;;;4984426;28;19918;-84
2022/03/19 16:12:46;;;;;;;;;;;;;;;;;;4984192;28;19910;-86
2022/03/19 16:15:11;;;;;;;;;;;;;;;;;;4984463;28;20039;-88
2022/03/19 16:17:36;;;;;;;;;;;;;;;;;;4983113;28;19910;-84
2022/03/19 16:20:01;;;;;;;;;;;;;;;;;;5001446;28;19917;-84
2022/03/19 16:22:26;;;;;;;;;;;;;;;;;;4984211;28;19937;-85
2022/03/19 16:24:51;;;;;;;;;;;;;;;;;;4966993;28;19954;-85
2022/03/19 16:27:17;;;;;;;;;;;;;;;;;;4980813;28;20287;-84
2022/03/19 16:29:42;;;;;;;;;;;;;;;;;;4964786;28;19928;-86
2022/03/19 16:32:07;;;;;;;;;;;;;;;;;;4965033;28;19898;-87
2022/03/19 16:34:32;;;;;;;;;;;;;;;;;;4983902;28;19910;-87
2022/03/19 16:36:57;;;;;;;;;;;;;;;;;;4983236;28;19953;-83
2022/03/19 16:39:22;;;;;;;;;;;;;;;;;;4963902;28;19977;-83
2022/03/19 16:41:48;;;;;;;;;;;;;;;;;;4964046;28;19910;-84
2022/03/19 16:44:13;;;;;;;;;;;;;;;;;;4996801;28;19916;-80
2022/03/19 16:46:38;;;;;;;;;;;;;;;;;;4983270;28;19936;-81
2022/03/19 16:49:03;;;;;;;;;;;;;;;;;;4998898;28;19926;-81
2022/03/19 16:51:28;;;;;;;;;;;;;;;;;;4998720;28;19968;-83
2022/03/19 16:53:53;;;;;;;;;;;;;;;;;;4983844;28;19921;-82